createdAt,value
2022-08-28T00:01:10.244Z,16.60
2022-08-28T00:03:38.721Z,13.88
2022-08-28T00:06:07.776Z,15.80
2022-08-28T00:08:36.397Z,15.73
2022-08-28T00:11:05.550Z,17.02
2022-08-28T00:13:35.248Z,15.18
2022-08-28T00:16:03.875Z,14.43
2022-08-28T00:18:32.978Z,14.43
2022-08-28T00:21:02.142Z,14.55
2022-08-28T00:23:42.880Z,15.82
2022-08-28T00:26:33.711Z,16.33
2022-08-28T00:29:04.721Z,16.63
2022-08-28T00:31:34.324Z,15.48
2022-08-28T00:34:03.401Z,16.15
2022-08-28T00:36:31.662Z,14.43
2022-08-28T00:39:00.344Z,17.33
2022-08-28T00:41:31.293Z,16.20
2022-08-28T00:44:13.304Z,18.00
2022-08-28T00:46:45.614Z,19.00
2022-08-28T00:49:16.280Z,18.08
2022-08-28T00:52:03.696Z,17.50
2022-08-28T00:54:35.596Z,20.25
2022-08-28T00:57:07.395Z,17.08
2022-08-28T00:59:38.076Z,19.42
2022-08-28T01:02:08.175Z,16.48
2022-08-28T01:04:38.552Z,17.13
2022-08-28T01:07:10.898Z,17.00
2022-08-28T01:09:44.664Z,15.27
2022-08-28T01:12:18.242Z,16.02
2022-08-28T01:14:51.598Z,20.17
2022-08-28T01:17:23.561Z,16.88
2022-08-28T01:19:58.313Z,19.92
2022-08-28T01:22:37.329Z,18.00
2022-08-28T01:25:12.327Z,18.50
2022-08-28T01:27:41.949Z,18.30
2022-08-28T01:30:13.650Z,19.10
2022-08-28T01:32:45.877Z,17.42
2022-08-28T01:35:20.294Z,17.13
2022-08-28T01:37:49.670Z,18.98
2022-08-28T01:40:25.181Z,18.55
2022-08-28T01:42:54.458Z,15.88
2022-08-28T01:45:25.032Z,17.67
2022-08-28T01:47:53.418Z,15.40
2022-08-28T01:50:22.904Z,18.42
2022-08-28T01:52:51.221Z,18.73
2022-08-28T01:55:21.590Z,17.10
2022-08-28T01:57:54.873Z,19.67
2022-08-28T02:00:26.943Z,17.05
2022-08-28T02:02:57.174Z,19.98
2022-08-28T02:05:28.263Z,18.55
2022-08-28T02:07:57.271Z,18.00
2022-08-28T02:10:30.142Z,20.30
2022-08-28T02:12:59.456Z,18.33
2022-08-28T02:15:30.282Z,18.05
2022-08-28T02:17:58.858Z,24.38
2022-08-28T02:20:28.644Z,18.73
2022-08-28T02:22:58.222Z,18.52
2022-08-28T02:25:29.503Z,26.00
2022-08-28T02:27:57.854Z,21.83
2022-08-28T02:30:26.537Z,19.58
2022-08-28T02:32:55.434Z,20.08
2022-08-28T02:35:25.287Z,25.33
2022-08-28T02:37:54.480Z,25.35
2022-08-28T02:40:27.149Z,23.98
2022-08-28T02:42:55.558Z,25.20
2022-08-28T02:45:23.868Z,24.67
2022-08-28T02:47:54.643Z,25.58
2022-08-28T02:50:24.042Z,21.35
2022-08-28T02:52:53.587Z,24.13
2022-08-28T02:55:24.637Z,23.65
2022-08-28T02:57:54.765Z,21.02
2022-08-28T03:00:26.797Z,22.98
2022-08-28T03:02:55.403Z,28.15
2022-08-28T03:05:26.865Z,28.58
2022-08-28T03:07:56.589Z,30.73
2022-08-28T03:10:25.186Z,27.63
2022-08-28T03:12:54.830Z,27.23
2022-08-28T03:15:23.241Z,31.42
2022-08-28T03:17:51.892Z,25.63
2022-08-28T03:20:20.369Z,24.77
2022-08-28T03:23:06.582Z,26.08
2022-08-28T03:25:34.868Z,26.63
2022-08-28T03:28:05.104Z,27.40
2022-08-28T03:30:33.459Z,27.65
2022-08-28T03:33:01.996Z,30.55
2022-08-28T03:35:30.836Z,26.05
2022-08-28T03:37:59.252Z,22.95
2022-08-28T03:40:27.650Z,24.42
2022-08-28T03:42:56.052Z,25.75
2022-08-28T03:45:25.871Z,25.20
2022-08-28T03:47:54.945Z,25.83
2022-08-28T03:50:23.682Z,23.98
2022-08-28T03:52:53.044Z,28.17
2022-08-28T03:55:22.670Z,23.50
2022-08-28T03:57:51.615Z,26.48
2022-08-28T04:00:20.824Z,21.23
2022-08-28T04:02:50.569Z,21.83
2022-08-28T04:05:19.208Z,20.15
2022-08-28T04:07:47.589Z,24.00
2022-08-28T04:10:15.837Z,23.95
2022-08-28T04:12:44.797Z,23.13
2022-08-28T04:15:15.143Z,22.85
2022-08-28T04:17:43.504Z,22.65
2022-08-28T04:20:13.603Z,26.27
2022-08-28T04:22:41.929Z,21.23
2022-08-28T04:25:11.071Z,21.33
2022-08-28T04:27:40.103Z,20.13
2022-08-28T04:30:11.007Z,24.17
2022-08-28T04:32:40.999Z,24.13
2022-08-28T04:35:15.459Z,23.65
2022-08-28T04:37:44.480Z,20.73
2022-08-28T04:40:16.025Z,21.35
2022-08-28T04:42:45.278Z,21.75
2022-08-28T04:45:13.604Z,21.25
2022-08-28T04:47:41.999Z,23.13
2022-08-28T04:50:13.412Z,26.05
2022-08-28T04:52:43.226Z,27.58
2022-08-28T04:55:11.807Z,23.42
2022-08-28T04:57:40.115Z,28.00
2022-08-28T05:00:11.671Z,26.15
2022-08-28T05:02:40.038Z,24.75
2022-08-28T05:05:09.378Z,25.88
2022-08-28T05:07:39.013Z,25.20
2022-08-28T05:10:11.079Z,28.45
2022-08-28T05:12:39.352Z,29.45
2022-08-28T05:15:09.280Z,28.13
2022-08-28T05:17:37.639Z,29.10
2022-08-28T05:20:07.644Z,27.40
2022-08-28T05:22:35.894Z,30.05
2022-08-28T05:25:06.288Z,28.77
2022-08-28T05:27:35.421Z,31.30
2022-08-28T05:30:04.197Z,25.10
2022-08-28T05:32:32.532Z,28.50
2022-08-28T05:35:00.960Z,32.88
2022-08-28T05:37:29.250Z,27.88
2022-08-28T05:39:57.720Z,31.23
2022-08-28T05:42:30.562Z,34.85
2022-08-28T05:45:00.038Z,29.40
2022-08-28T05:47:28.392Z,26.00
2022-08-28T05:49:56.935Z,32.10
2022-08-28T05:52:25.320Z,28.08
2022-08-28T05:54:53.554Z,28.67
2022-08-28T05:57:22.178Z,30.35
2022-08-28T05:59:51.977Z,32.50
2022-08-28T06:02:20.447Z,27.70
2022-08-28T06:04:49.047Z,34.83
2022-08-28T06:07:18.141Z,29.73
2022-08-28T06:09:46.841Z,29.02
2022-08-28T06:12:15.687Z,30.55
2022-08-28T06:14:44.928Z,33.55
2022-08-28T06:17:14.562Z,28.83
2022-08-28T06:19:42.853Z,25.63
2022-08-28T06:22:14.788Z,29.42
2022-08-28T06:24:43.183Z,27.63
2022-08-28T06:27:11.544Z,27.02
2022-08-28T06:29:40.852Z,28.10
2022-08-28T06:32:09.337Z,28.35
2022-08-28T06:34:39.403Z,26.80
2022-08-28T06:37:08.164Z,27.90
2022-08-28T06:39:36.651Z,29.30
2022-08-28T06:42:06.786Z,25.20
2022-08-28T06:44:35.053Z,24.02
2022-08-28T06:47:03.397Z,27.75
2022-08-28T06:49:31.710Z,28.00
2022-08-28T06:52:02.361Z,25.95
2022-08-28T06:54:31.134Z,25.00
2022-08-28T06:56:59.388Z,27.13
2022-08-28T06:59:27.707Z,23.23
2022-08-28T07:01:56.113Z,20.50
2022-08-28T07:04:24.803Z,23.27
2022-08-28T07:06:54.800Z,21.80
2022-08-28T07:09:25.500Z,23.83
2022-08-28T07:11:54.444Z,23.50
2022-08-28T07:14:22.761Z,18.50
2022-08-28T07:16:54.048Z,20.02
2022-08-28T07:19:22.317Z,18.75
2022-08-28T07:21:50.913Z,19.33
2022-08-28T07:24:20.474Z,20.27
2022-08-28T07:26:51.316Z,22.33
2022-08-28T07:29:20.846Z,15.68
2022-08-28T07:31:52.396Z,17.67
2022-08-28T07:34:27.292Z,16.77
2022-08-28T07:36:56.319Z,15.13
2022-08-28T07:39:25.276Z,17.98
2022-08-28T07:41:55.129Z,17.83
2022-08-28T07:44:41.013Z,18.30
2022-08-28T07:47:11.529Z,16.52
2022-08-28T07:49:41.534Z,17.48
2022-08-28T07:52:12.097Z,20.85
2022-08-28T07:54:41.517Z,17.77
2022-08-28T07:57:11.294Z,18.45
2022-08-28T07:59:41.104Z,18.10
2022-08-28T08:02:11.641Z,15.82
2022-08-28T08:04:40.261Z,14.77
2022-08-28T08:07:08.924Z,14.50
2022-08-28T08:09:40.325Z,15.35
2022-08-28T08:12:12.198Z,16.10
2022-08-28T08:14:43.129Z,13.73
2022-08-28T08:17:12.116Z,15.02
2022-08-28T08:19:40.981Z,13.02
2022-08-28T08:22:09.313Z,11.68
2022-08-28T08:24:37.636Z,12.60
2022-08-28T08:27:06.737Z,10.77
2022-08-28T08:29:40.673Z,11.93
2022-08-28T08:32:12.227Z,13.13
2022-08-28T08:34:45.774Z,13.05
2022-08-28T08:37:14.734Z,10.45
2022-08-28T08:39:44.391Z,12.98
2022-08-28T08:42:25.469Z,12.18
2022-08-28T08:44:58.537Z,11.13
2022-08-28T08:47:39.374Z,12.43
2022-08-28T08:50:16.523Z,10.25
2022-08-28T08:53:02.597Z,10.73
2022-08-28T08:55:35.493Z,10.55
2022-08-28T08:58:12.710Z,14.75
2022-08-28T09:01:02.625Z,12.18
2022-08-28T09:03:49.891Z,11.63
2022-08-28T09:06:33.367Z,11.05
2022-08-28T09:09:08.538Z,13.02
2022-08-28T09:11:50.336Z,11.75
2022-08-28T09:14:29.647Z,12.95
2022-08-28T09:17:01.711Z,11.18
2022-08-28T09:19:31.151Z,10.52
2022-08-28T09:21:59.894Z,8.38
2022-08-28T09:24:31.969Z,9.25
2022-08-28T09:27:03.417Z,9.10
2022-08-28T09:29:35.715Z,10.18
2022-08-28T09:32:25.235Z,10.18
2022-08-28T09:35:12.573Z,11.93
2022-08-28T09:37:42.791Z,9.10
2022-08-28T09:40:23.830Z,8.38
2022-08-28T09:43:23.074Z,9.23
2022-08-28T09:46:00.509Z,9.52
2022-08-28T09:48:36.966Z,9.80
2022-08-28T09:51:09.573Z,11.25
2022-08-28T09:53:44.513Z,8.98
2022-08-28T09:56:19.960Z,10.15
2022-08-28T09:58:54.608Z,8.77
2022-08-28T10:01:51.235Z,7.63
2022-08-28T10:04:55.851Z,8.27
2022-08-28T10:07:38.333Z,8.95
2022-08-28T10:10:27.868Z,6.80
2022-08-28T10:13:05.838Z,8.55
2022-08-28T10:16:00.240Z,10.07
2022-08-28T10:18:44.634Z,9.63
2022-08-28T10:21:22.749Z,9.60
2022-08-28T10:24:31.418Z,9.68
2022-08-28T10:27:15.347Z,8.52
2022-08-28T10:30:05.179Z,10.02
2022-08-28T10:32:58.386Z,8.70
2022-08-28T10:35:39.805Z,7.80
2022-08-28T10:38:16.163Z,10.00
2022-08-28T10:40:56.949Z,9.50
2022-08-28T10:43:37.350Z,7.57
2022-08-28T10:46:13.765Z,7.18
2022-08-28T10:48:50.507Z,9.50
2022-08-28T10:51:34.752Z,6.40
2022-08-28T10:54:16.735Z,5.78
2022-08-28T10:56:56.580Z,11.20
2022-08-28T10:59:30.025Z,7.38
2022-08-28T11:01:59.720Z,7.43
2022-08-28T11:04:30.627Z,8.63
2022-08-28T11:07:05.213Z,11.23
2022-08-28T11:09:39.899Z,11.00
2022-08-28T11:12:36.716Z,8.25
2022-08-28T11:15:42.089Z,8.55
2022-08-28T11:19:00.968Z,8.95
2022-08-28T11:21:36.753Z,7.30
2022-08-28T11:24:12.197Z,6.35
2022-08-28T11:26:52.583Z,7.90
2022-08-28T11:30:35.577Z,7.03
2022-08-28T11:33:38.179Z,6.22
2022-08-28T11:36:12.047Z,5.47
2022-08-28T11:39:21.500Z,9.73
2022-08-28T11:42:37.318Z,10.77
2022-08-28T11:45:07.353Z,7.70
2022-08-28T11:47:56.635Z,8.00
2022-08-28T11:50:34.281Z,14.35
2022-08-28T11:53:50.088Z,8.65
2022-08-28T11:56:43.525Z,10.82
2022-08-28T11:59:48.105Z,8.43
2022-08-28T12:03:12.672Z,8.98
2022-08-28T12:05:55.337Z,7.65
2022-08-28T12:09:10.599Z,7.43
2022-08-28T12:12:05.437Z,5.65
2022-08-28T12:15:11.219Z,10.65
2022-08-28T12:17:55.439Z,8.70
2022-08-28T12:20:57.994Z,6.35
2022-08-28T12:23:39.242Z,9.38
2022-08-28T12:26:18.143Z,8.40
2022-08-28T12:28:51.469Z,6.30
2022-08-28T12:32:15.020Z,6.47
2022-08-28T12:34:50.970Z,7.18
2022-08-28T12:37:52.624Z,7.75
2022-08-28T12:40:26.610Z,4.63
2022-08-28T12:42:59.233Z,5.72
2022-08-28T12:45:33.693Z,6.85
2022-08-28T12:48:17.341Z,5.57
2022-08-28T12:50:45.687Z,6.85
2022-08-28T12:53:18.745Z,7.85
2022-08-28T12:55:47.956Z,8.43
2022-08-28T12:58:31.365Z,5.65
2022-08-28T13:01:05.563Z,5.05
2022-08-28T13:03:41.910Z,7.63
2022-08-28T13:06:10.804Z,6.85
2022-08-28T13:08:39.596Z,7.53
2022-08-28T13:11:08.305Z,5.93
2022-08-28T13:13:41.277Z,6.47
2022-08-28T13:16:12.753Z,7.13
2022-08-28T13:18:59.156Z,8.75
2022-08-28T13:21:35.871Z,7.63
2022-08-28T13:24:45.681Z,6.97
2022-08-28T13:27:25.399Z,7.35
2022-08-28T13:30:01.564Z,5.38
2022-08-28T13:32:32.597Z,7.05
2022-08-28T13:35:39.963Z,7.90
2022-08-28T13:38:12.539Z,5.00
2022-08-28T13:40:58.413Z,7.97
2022-08-28T13:43:42.886Z,5.50
2022-08-28T13:46:11.624Z,5.80
2022-08-28T13:48:40.646Z,6.75
2022-08-28T13:51:20.629Z,8.25
2022-08-28T13:53:49.745Z,7.90
2022-08-28T13:56:18.114Z,7.57
2022-08-28T13:58:50.013Z,6.95
2022-08-28T14:01:47.169Z,6.72
2022-08-28T14:04:16.134Z,9.23
2022-08-28T14:06:47.320Z,7.82
2022-08-28T14:09:17.746Z,7.70
2022-08-28T14:11:47.226Z,5.93
2022-08-28T14:14:15.689Z,6.47
2022-08-28T14:16:45.757Z,6.93
2022-08-28T14:19:14.459Z,8.10
2022-08-28T14:21:43.536Z,7.68
2022-08-28T14:24:13.839Z,7.03
2022-08-28T14:26:42.475Z,7.82
2022-08-28T14:29:14.376Z,5.68
2022-08-28T14:31:43.970Z,6.13
2022-08-28T14:34:16.299Z,6.63
2022-08-28T14:36:45.061Z,6.65
2022-08-28T14:39:15.051Z,6.65
2022-08-28T14:41:46.837Z,6.75
2022-08-28T14:44:16.553Z,5.57
2022-08-28T14:46:49.342Z,7.45
2022-08-28T14:49:20.725Z,5.93
2022-08-28T14:51:51.014Z,5.53
2022-08-28T14:54:24.519Z,8.88
2022-08-28T14:56:55.004Z,5.95
2022-08-28T14:59:27.212Z,5.35
2022-08-28T15:01:59.993Z,5.60
2022-08-28T15:04:34.704Z,7.07
2022-08-28T15:07:10.882Z,6.38
2022-08-28T15:09:43.857Z,7.00
2022-08-28T15:12:12.140Z,5.40
2022-08-28T15:14:40.591Z,6.30
2022-08-28T15:17:34.354Z,6.97
2022-08-28T15:20:03.715Z,5.88
2022-08-28T15:22:32.310Z,4.75
2022-08-28T15:25:01.910Z,5.20
2022-08-28T15:27:30.424Z,5.47
2022-08-28T15:29:59.069Z,8.55
2022-08-28T15:32:27.419Z,6.00
2022-08-28T15:34:55.669Z,5.85
2022-08-28T15:37:24.057Z,6.22
2022-08-28T15:40:10.063Z,6.57
2022-08-28T15:42:39.769Z,6.05
2022-08-28T15:45:08.591Z,5.72
2022-08-28T15:47:38.184Z,6.55
2022-08-28T15:50:08.240Z,9.10
2022-08-28T15:52:39.675Z,6.63
2022-08-28T15:55:09.078Z,8.30
2022-08-28T15:57:39.193Z,8.45
2022-08-28T16:00:10.603Z,6.60
2022-08-28T16:02:39.566Z,7.70
2022-08-28T16:05:09.058Z,9.60
2022-08-28T16:07:37.633Z,8.60
2022-08-28T16:10:08.384Z,7.75
2022-08-28T16:12:39.271Z,4.90
2022-08-28T16:15:11.156Z,6.65
2022-08-28T16:17:39.920Z,6.55
2022-08-28T16:20:12.411Z,5.90
2022-08-28T16:22:42.839Z,7.88
2022-08-28T16:25:13.145Z,7.53
2022-08-28T16:27:41.677Z,6.80
2022-08-28T16:30:15.634Z,7.45
2022-08-28T16:32:46.752Z,5.20
2022-08-28T16:35:15.965Z,6.50
2022-08-28T16:37:44.738Z,6.93
2022-08-28T16:40:14.992Z,8.63
2022-08-28T16:42:51.570Z,7.57
2022-08-28T16:45:21.976Z,7.50
2022-08-28T16:47:51.396Z,6.82
2022-08-28T16:50:20.437Z,6.88
2022-08-28T16:52:49.070Z,7.20
2022-08-28T16:55:17.660Z,5.68
2022-08-28T16:57:45.983Z,7.53
2022-08-28T17:00:15.183Z,9.00
2022-08-28T17:02:44.953Z,8.75
2022-08-28T17:05:14.142Z,6.88
2022-08-28T17:07:43.428Z,7.85
2022-08-28T17:10:14.834Z,9.80
2022-08-28T17:12:43.571Z,7.43
2022-08-28T17:15:13.124Z,8.80
2022-08-28T17:17:42.160Z,7.63
2022-08-28T17:20:34.529Z,9.13
2022-08-28T17:23:02.742Z,7.70
2022-08-28T17:25:31.049Z,6.78
2022-08-28T17:28:00.220Z,7.65
2022-08-28T17:30:28.532Z,9.73
2022-08-28T17:32:57.083Z,7.70
2022-08-28T17:35:26.837Z,8.38
2022-08-28T17:37:55.682Z,6.85
2022-08-28T17:40:26.097Z,6.45
2022-08-28T17:42:54.542Z,8.57
2022-08-28T17:45:23.246Z,9.02
2022-08-28T17:47:52.779Z,9.10
2022-08-28T17:50:22.454Z,7.50
2022-08-28T17:52:52.269Z,8.23
2022-08-28T17:55:22.162Z,7.30
2022-08-28T17:57:51.027Z,8.18
2022-08-28T18:00:20.178Z,8.40
2022-08-28T18:02:52.046Z,8.88
2022-08-28T18:05:20.980Z,8.18
2022-08-28T18:07:51.692Z,9.25
2022-08-28T18:10:21.765Z,8.27
2022-08-28T18:12:50.529Z,11.43
2022-08-28T18:15:19.320Z,9.43
2022-08-28T18:17:50.421Z,9.75
2022-08-28T18:20:19.943Z,11.98
2022-08-28T18:22:49.220Z,8.27
2022-08-28T18:25:33.701Z,11.32
2022-08-28T18:28:03.013Z,9.50
2022-08-28T18:30:31.740Z,10.52
2022-08-28T18:33:00.795Z,9.25
2022-08-28T18:35:31.572Z,9.30
2022-08-28T18:38:01.676Z,11.13
2022-08-28T18:40:31.819Z,10.68
2022-08-28T18:43:00.321Z,9.60
2022-08-28T18:45:29.939Z,9.20
2022-08-28T18:47:58.969Z,11.10
2022-08-28T18:50:31.686Z,11.45
2022-08-28T18:53:01.476Z,9.20
2022-08-28T18:55:33.505Z,10.05
2022-08-28T18:58:03.338Z,9.40
2022-08-28T19:00:34.429Z,9.93
2022-08-28T19:03:03.126Z,10.48
2022-08-28T19:05:31.679Z,11.38
2022-08-28T19:08:02.165Z,11.75
2022-08-28T19:10:34.402Z,9.98
2022-08-28T19:13:03.877Z,11.43
2022-08-28T19:15:34.578Z,16.67
2022-08-28T19:18:04.212Z,10.85
2022-08-28T19:20:33.319Z,10.23
2022-08-28T19:23:02.190Z,12.52
2022-08-28T19:25:32.506Z,11.07
2022-08-28T19:28:03.129Z,11.15
2022-08-28T19:30:34.587Z,12.80
2022-08-28T19:33:06.013Z,9.77
2022-08-28T19:35:34.925Z,10.00
2022-08-28T19:38:03.595Z,8.88
2022-08-28T19:40:33.661Z,11.15
2022-08-28T19:43:02.294Z,10.80
2022-08-28T19:45:34.138Z,9.85
2022-08-28T19:48:03.248Z,12.40
2022-08-28T19:50:31.716Z,13.45
2022-08-28T19:53:00.382Z,9.32
2022-08-28T19:55:29.928Z,8.45
2022-08-28T19:58:00.120Z,9.32
2022-08-28T20:00:31.813Z,13.38
2022-08-28T20:03:00.515Z,11.23
2022-08-28T20:05:29.174Z,10.30
2022-08-28T20:07:57.636Z,9.10
2022-08-28T20:10:27.779Z,11.02
2022-08-28T20:12:56.461Z,10.07
2022-08-28T20:15:26.261Z,12.10
2022-08-28T20:17:54.643Z,9.75
2022-08-28T20:20:27.942Z,13.25
2022-08-28T20:22:58.413Z,9.93
2022-08-28T20:25:27.626Z,9.95
2022-08-28T20:28:00.909Z,10.23
2022-08-28T20:30:31.765Z,11.40
2022-08-28T20:33:02.054Z,10.50
2022-08-28T20:35:30.817Z,9.02
2022-08-28T20:37:59.548Z,8.70
2022-08-28T20:40:28.471Z,10.25
2022-08-28T20:42:57.130Z,12.95
2022-08-28T20:45:25.805Z,10.15
2022-08-28T20:47:55.664Z,7.95
2022-08-28T20:50:24.648Z,11.45
2022-08-28T20:52:53.066Z,11.02
2022-08-28T20:55:21.683Z,14.52
2022-08-28T20:57:50.081Z,10.45
2022-08-28T21:00:18.438Z,11.52
2022-08-28T21:02:46.729Z,11.02
2022-08-28T21:05:16.438Z,12.43
2022-08-28T21:07:44.984Z,11.75
2022-08-28T21:10:13.206Z,13.23
2022-08-28T21:12:41.567Z,12.68
2022-08-28T21:15:13.424Z,10.13
2022-08-28T21:17:42.630Z,10.88
2022-08-28T21:20:16.215Z,12.85
2022-08-28T21:22:45.462Z,10.60
2022-08-28T21:25:15.391Z,13.02
2022-08-28T21:27:44.637Z,13.98
2022-08-28T21:30:17.758Z,11.85
2022-08-28T21:32:47.424Z,12.65
2022-08-28T21:35:19.962Z,13.43
2022-08-28T21:37:49.690Z,12.70
2022-08-28T21:40:21.474Z,12.48
2022-08-28T21:42:50.644Z,14.88
2022-08-28T21:45:19.944Z,13.20
2022-08-28T21:47:49.345Z,12.25
2022-08-28T21:50:24.176Z,10.48
2022-08-28T21:52:58.289Z,9.65
2022-08-28T21:55:39.057Z,13.60
2022-08-28T21:58:19.514Z,9.30
2022-08-28T22:01:02.172Z,9.55
2022-08-28T22:03:40.234Z,10.15
2022-08-28T22:06:20.136Z,9.93
2022-08-28T22:08:56.229Z,9.73
2022-08-28T22:11:28.753Z,11.50
2022-08-28T22:14:06.029Z,12.60
2022-08-28T22:16:40.947Z,9.95
2022-08-28T22:19:16.160Z,9.15
2022-08-28T22:22:08.165Z,11.02
2022-08-28T22:24:40.907Z,14.05
2022-08-28T22:27:13.616Z,10.45
2022-08-28T22:29:43.876Z,9.30
2022-08-28T22:32:16.391Z,10.98
2022-08-28T22:34:51.592Z,10.45
2022-08-28T22:37:33.865Z,13.45
2022-08-28T22:40:13.387Z,11.35
2022-08-28T22:42:45.287Z,11.27
2022-08-28T22:45:16.286Z,10.05
2022-08-28T22:47:57.806Z,10.32
2022-08-28T22:50:37.769Z,7.90
2022-08-28T22:53:19.344Z,11.57
2022-08-28T22:55:48.845Z,10.02
2022-08-28T22:58:18.258Z,11.20
2022-08-28T23:00:53.784Z,8.65
2022-08-28T23:03:25.175Z,14.23
2022-08-28T23:05:54.745Z,10.57
2022-08-28T23:08:33.729Z,9.57
2022-08-28T23:11:05.525Z,11.20
2022-08-28T23:13:35.541Z,12.88
2022-08-28T23:16:05.599Z,11.00
2022-08-28T23:19:06.498Z,9.73
2022-08-28T23:21:32.207Z,11.18
2022-08-28T23:24:04.486Z,10.93
2022-08-28T23:26:39.573Z,16.45
2022-08-28T23:29:15.570Z,14.95
2022-08-28T23:31:45.645Z,16.20
2022-08-28T23:34:20.676Z,12.68
2022-08-28T23:36:51.971Z,12.30
2022-08-28T23:39:25.982Z,12.18
2022-08-28T23:42:02.547Z,11.95
2022-08-28T23:44:36.859Z,13.25
2022-08-28T23:47:06.876Z,13.70
2022-08-28T23:49:42.905Z,11.60
2022-08-28T23:52:20.921Z,12.20
2022-08-28T23:55:01.871Z,13.30
2022-08-28T23:57:31.725Z,10.90
